sensor_id;sensor_type;location;lat;lon;timestamp;pressure;altitude;pressure_sealevel;temperature;humidity
54924;BME280;40825;52.270;20.984;2023-01-25T00:01:27;102674.80;;;0.68;94.02
54924;BME280;40825;52.270;20.984;2023-01-25T00:03:52;102676.92;;;0.68;94.32
54924;BME280;40825;52.270;20.984;2023-01-25T00:06:18;102680.06;;;0.68;94.42
54924;BME280;40825;52.270;20.984;2023-01-25T00:08:48;102681.55;;;0.66;93.39
54924;BME280;40825;52.270;20.984;2023-01-25T00:11:14;102681.24;;;0.65;94.19
54924;BME280;40825;52.270;20.984;2023-01-25T00:13:41;102681.19;;;0.66;94.53
54924;BME280;40825;52.270;20.984;2023-01-25T00:16:07;102681.67;;;0.67;93.67
54924;BME280;40825;52.270;20.984;2023-01-25T00:18:32;102688.19;;;0.66;94.01
54924;BME280;40825;52.270;20.984;2023-01-25T00:20:58;102688.10;;;0.68;94.09
54924;BME280;40825;52.270;20.984;2023-01-25T00:23:23;102684.08;;;0.68;93.15
54924;BME280;40825;52.270;20.984;2023-01-25T00:25:55;102674.58;;;0.69;94.00
54924;BME280;40825;52.270;20.984;2023-01-25T00:28:21;102666.85;;;0.69;93.09
54924;BME280;40825;52.270;20.984;2023-01-25T00:30:47;102666.02;;;0.65;91.71
54924;BME280;40825;52.270;20.984;2023-01-25T00:35:43;102662.10;;;0.54;92.41
54924;BME280;40825;52.270;20.984;2023-01-25T00:38:26;102661.77;;;0.50;92.14
54924;BME280;40825;52.270;20.984;2023-01-25T00:40:52;102658.52;;;0.48;93.00
54924;BME280;40825;52.270;20.984;2023-01-25T00:43:18;102665.67;;;0.48;93.13
54924;BME280;40825;52.270;20.984;2023-01-25T00:45:44;102661.52;;;0.47;92.31
54924;BME280;40825;52.270;20.984;2023-01-25T00:48:10;102655.67;;;0.45;92.55
54924;BME280;40825;52.270;20.984;2023-01-25T00:50:37;102655.19;;;0.44;92.86
54924;BME280;40825;52.270;20.984;2023-01-25T00:53:02;102648.42;;;0.43;92.66
54924;BME280;40825;52.270;20.984;2023-01-25T00:55:28;102645.83;;;0.42;92.79
54924;BME280;40825;52.270;20.984;2023-01-25T00:57:53;102638.45;;;0.42;92.55
54924;BME280;40825;52.270;20.984;2023-01-25T01:00:19;102639.26;;;0.40;91.82
54924;BME280;40825;52.270;20.984;2023-01-25T01:02:45;102640.77;;;0.37;91.21
54924;BME280;40825;52.270;20.984;2023-01-25T01:05:10;102640.71;;;0.31;90.21
54924;BME280;40825;52.270;20.984;2023-01-25T01:07:36;102642.85;;;0.25;90.39
54924;BME280;40825;52.270;20.984;2023-01-25T01:10:02;102640.30;;;0.24;91.25
54924;BME280;40825;52.270;20.984;2023-01-25T01:12:28;102642.88;;;0.25;90.53
54924;BME280;40825;52.270;20.984;2023-01-25T01:14:54;102635.27;;;0.19;89.94
54924;BME280;40825;52.270;20.984;2023-01-25T01:17:20;102631.27;;;0.14;89.94
54924;BME280;40825;52.270;20.984;2023-01-25T01:19:46;102629.70;;;0.10;90.37
54924;BME280;40825;52.270;20.984;2023-01-25T01:22:11;102630.95;;;0.09;90.29
54924;BME280;40825;52.270;20.984;2023-01-25T01:24:37;102632.78;;;0.11;90.98
54924;BME280;40825;52.270;20.984;2023-01-25T01:27:03;102633.71;;;0.10;90.75
54924;BME280;40825;52.270;20.984;2023-01-25T01:29:28;102638.35;;;0.12;90.71
54924;BME280;40825;52.270;20.984;2023-01-25T01:31:53;102638.68;;;0.13;90.94
54924;BME280;40825;52.270;20.984;2023-01-25T01:34:20;102633.25;;;0.13;89.75
54924;BME280;40825;52.270;20.984;2023-01-25T01:36:46;102634.07;;;0.06;89.62
54924;BME280;40825;52.270;20.984;2023-01-25T01:39:11;102630.22;;;0.02;89.27
54924;BME280;40825;52.270;20.984;2023-01-25T01:41:37;102624.91;;;0.03;90.39
54924;BME280;40825;52.270;20.984;2023-01-25T01:44:04;102619.23;;;0.05;90.61
54924;BME280;40825;52.270;20.984;2023-01-25T01:46:37;102625.40;;;0.04;89.72
54924;BME280;40825;52.270;20.984;2023-01-25T01:51:50;102623.77;;;0.02;90.44
54924;BME280;40825;52.270;20.984;2023-01-25T01:57:13;102624.50;;;0.05;90.08
54924;BME280;40825;52.270;20.984;2023-01-25T01:59:47;102624.64;;;0.05;89.86
54924;BME280;40825;52.270;20.984;2023-01-25T02:02:15;102625.19;;;0.01;89.90
54924;BME280;40825;52.270;20.984;2023-01-25T02:04:43;102618.84;;;-0.03;89.89
54924;BME280;40825;52.270;20.984;2023-01-25T02:07:16;102618.69;;;-0.07;89.72
54924;BME280;40825;52.270;20.984;2023-01-25T02:09:44;102616.94;;;-0.11;89.76
54924;BME280;40825;52.270;20.984;2023-01-25T02:12:10;102609.45;;;-0.12;90.16
54924;BME280;40825;52.270;20.984;2023-01-25T02:14:42;102609.05;;;-0.11;90.08
54924;BME280;40825;52.270;20.984;2023-01-25T02:17:10;102604.99;;;-0.14;88.82
54924;BME280;40825;52.270;20.984;2023-01-25T02:25:24;102600.27;;;-0.27;88.40
54924;BME280;40825;52.270;20.984;2023-01-25T02:30:41;102595.93;;;-0.36;89.16
54924;BME280;40825;52.270;20.984;2023-01-25T02:33:07;102591.88;;;-0.36;89.26
54924;BME280;40825;52.270;20.984;2023-01-25T02:35:42;102591.39;;;-0.36;88.05
54924;BME280;40825;52.270;20.984;2023-01-25T02:38:11;102588.98;;;-0.42;88.32
54924;BME280;40825;52.270;20.984;2023-01-25T02:40:44;102591.91;;;-0.45;88.03
54924;BME280;40825;52.270;20.984;2023-01-25T02:43:11;102590.36;;;-0.49;88.36
54924;BME280;40825;52.270;20.984;2023-01-25T02:45:36;102587.45;;;-0.51;87.60
54924;BME280;40825;52.270;20.984;2023-01-25T02:48:02;102585.59;;;-0.57;87.76
54924;BME280;40825;52.270;20.984;2023-01-25T02:50:28;102579.54;;;-0.63;87.79
54924;BME280;40825;52.270;20.984;2023-01-25T02:52:53;102582.61;;;-0.65;88.18
54924;BME280;40825;52.270;20.984;2023-01-25T02:55:18;102582.08;;;-0.65;88.54
54924;BME280;40825;52.270;20.984;2023-01-25T02:57:44;102584.53;;;-0.61;88.31
54924;BME280;40825;52.270;20.984;2023-01-25T03:00:11;102583.00;;;-0.62;88.32
54924;BME280;40825;52.270;20.984;2023-01-25T03:02:37;102578.92;;;-0.65;88.39
54924;BME280;40825;52.270;20.984;2023-01-25T03:05:02;102573.81;;;-0.64;88.31
54924;BME280;40825;52.270;20.984;2023-01-25T03:07:28;102567.06;;;-0.65;88.48
54924;BME280;40825;52.270;20.984;2023-01-25T03:09:53;102566.55;;;-0.66;88.34
54924;BME280;40825;52.270;20.984;2023-01-25T03:12:19;102556.36;;;-0.70;88.35
54924;BME280;40825;52.270;20.984;2023-01-25T03:14:44;102552.58;;;-0.66;88.85
54924;BME280;40825;52.270;20.984;2023-01-25T03:17:10;102548.34;;;-0.61;88.70
54924;BME280;40825;52.270;20.984;2023-01-25T03:19:36;102547.25;;;-0.60;88.56
54924;BME280;40825;52.270;20.984;2023-01-25T03:22:02;102542.61;;;-0.63;88.45
54924;BME280;40825;52.270;20.984;2023-01-25T03:24:28;102542.80;;;-0.63;88.72
54924;BME280;40825;52.270;20.984;2023-01-25T03:26:53;102542.73;;;-0.61;88.65
54924;BME280;40825;52.270;20.984;2023-01-25T03:29:37;102540.39;;;-0.63;88.26
54924;BME280;40825;52.270;20.984;2023-01-25T03:32:03;102541.44;;;-0.64;88.40
54924;BME280;40825;52.270;20.984;2023-01-25T03:34:29;102537.54;;;-0.66;88.23
54924;BME280;40825;52.270;20.984;2023-01-25T03:36:54;102534.90;;;-0.66;87.96
54924;BME280;40825;52.270;20.984;2023-01-25T03:39:20;102535.84;;;-0.64;88.39
54924;BME280;40825;52.270;20.984;2023-01-25T03:41:45;102535.77;;;-0.62;88.63
54924;BME280;40825;52.270;20.984;2023-01-25T03:44:11;102531.85;;;-0.60;88.52
54924;BME280;40825;52.270;20.984;2023-01-25T03:46:37;102525.30;;;-0.63;87.97
54924;BME280;40825;52.270;20.984;2023-01-25T03:49:03;102525.65;;;-0.67;87.98
54924;BME280;40825;52.270;20.984;2023-01-25T03:51:28;102533.52;;;-0.66;88.47
54924;BME280;40825;52.270;20.984;2023-01-25T03:53:54;102528.52;;;-0.64;88.25
54924;BME280;40825;52.270;20.984;2023-01-25T03:56:19;102517.08;;;-0.62;87.68
54924;BME280;40825;52.270;20.984;2023-01-25T03:58:45;102518.58;;;-0.65;87.91
54924;BME280;40825;52.270;20.984;2023-01-25T04:01:11;102515.42;;;-0.64;87.82
54924;BME280;40825;52.270;20.984;2023-01-25T04:03:37;102524.16;;;-0.64;88.14
54924;BME280;40825;52.270;20.984;2023-01-25T04:06:03;102524.03;;;-0.62;87.89
54924;BME280;40825;52.270;20.984;2023-01-25T04:08:29;102530.96;;;-0.60;87.81
54924;BME280;40825;52.270;20.984;2023-01-25T04:11:03;102512.22;;;-0.59;87.38
54924;BME280;40825;52.270;20.984;2023-01-25T04:13:30;102511.38;;;-0.64;86.48
54924;BME280;40825;52.270;20.984;2023-01-25T04:15:56;102512.08;;;-0.68;86.17
54924;BME280;40825;52.270;20.984;2023-01-25T04:18:22;102510.05;;;-0.70;86.97
54924;BME280;40825;52.270;20.984;2023-01-25T04:20:55;102515.36;;;-0.67;87.94
54924;BME280;40825;52.270;20.984;2023-01-25T04:23:21;102513.15;;;-0.69;87.76
54924;BME280;40825;52.270;20.984;2023-01-25T04:26:01;102514.67;;;-0.72;88.04
54924;BME280;40825;52.270;20.984;2023-01-25T04:28:29;102508.90;;;-0.72;88.19
54924;BME280;40825;52.270;20.984;2023-01-25T04:30:56;102506.77;;;-0.75;88.34
54924;BME280;40825;52.270;20.984;2023-01-25T04:33:23;102500.84;;;-0.76;88.35
54924;BME280;40825;52.270;20.984;2023-01-25T04:35:49;102501.48;;;-0.78;88.33
54924;BME280;40825;52.270;20.984;2023-01-25T04:38:15;102505.27;;;-0.81;88.60
54924;BME280;40825;52.270;20.984;2023-01-25T04:40:41;102494.95;;;-0.81;88.62
54924;BME280;40825;52.270;20.984;2023-01-25T04:43:07;102493.42;;;-0.87;88.21
54924;BME280;40825;52.270;20.984;2023-01-25T04:45:33;102496.67;;;-0.93;88.22
54924;BME280;40825;52.270;20.984;2023-01-25T04:48:05;102499.64;;;-1.02;88.41
54924;BME280;40825;52.270;20.984;2023-01-25T04:50:38;102502.84;;;-1.07;88.45
54924;BME280;40825;52.270;20.984;2023-01-25T04:53:05;102503.09;;;-1.09;88.76
54924;BME280;40825;52.270;20.984;2023-01-25T04:55:31;102500.85;;;-1.11;88.77
54924;BME280;40825;52.270;20.984;2023-01-25T04:57:58;102497.72;;;-1.11;88.76
54924;BME280;40825;52.270;20.984;2023-01-25T05:00:24;102500.29;;;-1.14;88.90
54924;BME280;40825;52.270;20.984;2023-01-25T05:02:50;102502.36;;;-1.13;88.91
54924;BME280;40825;52.270;20.984;2023-01-25T05:05:16;102498.30;;;-1.12;88.94
54924;BME280;40825;52.270;20.984;2023-01-25T05:07:42;102505.07;;;-1.15;89.01
54924;BME280;40825;52.270;20.984;2023-01-25T05:10:08;102501.80;;;-1.16;88.94
54924;BME280;40825;52.270;20.984;2023-01-25T05:12:34;102504.33;;;-1.19;88.97
54924;BME280;40825;52.270;20.984;2023-01-25T05:14:59;102501.48;;;-1.22;88.94
54924;BME280;40825;52.270;20.984;2023-01-25T05:17:25;102498.42;;;-1.24;89.03
54924;BME280;40825;52.270;20.984;2023-01-25T05:19:50;102491.92;;;-1.27;89.11
54924;BME280;40825;52.270;20.984;2023-01-25T05:22:17;102495.46;;;-1.33;88.98
54924;BME280;40825;52.270;20.984;2023-01-25T05:24:45;102490.86;;;-1.36;89.08
54924;BME280;40825;52.270;20.984;2023-01-25T05:27:14;102489.02;;;-1.38;89.18
54924;BME280;40825;52.270;20.984;2023-01-25T05:29:42;102489.39;;;-1.43;89.13
54924;BME280;40825;52.270;20.984;2023-01-25T05:34:35;102489.16;;;-1.55;89.35
54924;BME280;40825;52.270;20.984;2023-01-25T05:37:02;102488.91;;;-1.58;89.51
54924;BME280;40825;52.270;20.984;2023-01-25T05:39:28;102487.39;;;-1.55;89.55
54924;BME280;40825;52.270;20.984;2023-01-25T05:41:54;102486.76;;;-1.52;89.40
54924;BME280;40825;52.270;20.984;2023-01-25T05:44:20;102486.94;;;-1.52;89.36
54924;BME280;40825;52.270;20.984;2023-01-25T05:46:46;102484.38;;;-1.54;89.30
54924;BME280;40825;52.270;20.984;2023-01-25T05:49:12;102483.64;;;-1.57;89.37
54924;BME280;40825;52.270;20.984;2023-01-25T05:51:37;102475.68;;;-1.64;89.11
54924;BME280;40825;52.270;20.984;2023-01-25T05:54:04;102477.32;;;-1.70;89.26
54924;BME280;40825;52.270;20.984;2023-01-25T05:56:31;102475.38;;;-1.74;89.27
54924;BME280;40825;52.270;20.984;2023-01-25T05:58:58;102471.19;;;-1.78;89.41
54924;BME280;40825;52.270;20.984;2023-01-25T06:01:26;102463.86;;;-1.79;89.47
54924;BME280;40825;52.270;20.984;2023-01-25T06:03:52;102465.17;;;-1.81;89.52
54924;BME280;40825;52.270;20.984;2023-01-25T06:06:18;102464.14;;;-1.81;89.40
54924;BME280;40825;52.270;20.984;2023-01-25T06:08:44;102466.80;;;-1.83;89.48
54924;BME280;40825;52.270;20.984;2023-01-25T06:11:11;102463.30;;;-1.82;89.57
54924;BME280;40825;52.270;20.984;2023-01-25T06:13:37;102459.77;;;-1.82;89.66
54924;BME280;40825;52.270;20.984;2023-01-25T06:16:03;102460.89;;;-1.78;89.62
54924;BME280;40825;52.270;20.984;2023-01-25T06:18:30;102457.31;;;-1.81;89.60
54924;BME280;40825;52.270;20.984;2023-01-25T06:20:57;102458.81;;;-1.88;89.56
54924;BME280;40825;52.270;20.984;2023-01-25T06:23:23;102462.82;;;-1.88;89.70
54924;BME280;40825;52.270;20.984;2023-01-25T06:25:49;102458.08;;;-1.87;89.73
54924;BME280;40825;52.270;20.984;2023-01-25T06:28:15;102459.14;;;-1.88;89.89
54924;BME280;40825;52.270;20.984;2023-01-25T06:30:41;102460.80;;;-1.85;89.84
54924;BME280;40825;52.270;20.984;2023-01-25T06:33:06;102465.41;;;-1.82;89.94
54924;BME280;40825;52.270;20.984;2023-01-25T06:35:32;102467.04;;;-1.80;89.92
54924;BME280;40825;52.270;20.984;2023-01-25T06:37:59;102465.30;;;-1.80;89.82
54924;BME280;40825;52.270;20.984;2023-01-25T06:40:26;102462.80;;;-1.78;89.74
54924;BME280;40825;52.270;20.984;2023-01-25T06:42:52;102458.88;;;-1.81;89.82
54924;BME280;40825;52.270;20.984;2023-01-25T06:45:17;102454.83;;;-1.80;89.88
54924;BME280;40825;52.270;20.984;2023-01-25T06:47:43;102449.75;;;-1.80;89.78
54924;BME280;40825;52.270;20.984;2023-01-25T06:50:11;102452.90;;;-1.84;89.77
54924;BME280;40825;52.270;20.984;2023-01-25T06:52:37;102450.95;;;-1.88;89.87
54924;BME280;40825;52.270;20.984;2023-01-25T06:55:06;102446.58;;;-1.87;89.83
54924;BME280;40825;52.270;20.984;2023-01-25T06:57:34;102443.37;;;-1.86;89.93
54924;BME280;40825;52.270;20.984;2023-01-25T06:59:59;102448.84;;;-1.83;90.01
54924;BME280;40825;52.270;20.984;2023-01-25T07:02:25;102445.25;;;-1.81;89.87
54924;BME280;40825;52.270;20.984;2023-01-25T07:04:51;102445.52;;;-1.78;89.75
54924;BME280;40825;52.270;20.984;2023-01-25T07:07:17;102445.55;;;-1.74;89.98
54924;BME280;40825;52.270;20.984;2023-01-25T07:09:42;102440.69;;;-1.71;89.91
54924;BME280;40825;52.270;20.984;2023-01-25T07:12:08;102433.59;;;-1.68;89.93
54924;BME280;40825;52.270;20.984;2023-01-25T07:14:33;102427.23;;;-1.65;89.86
54924;BME280;40825;52.270;20.984;2023-01-25T07:16:59;102422.58;;;-1.68;89.69
54924;BME280;40825;52.270;20.984;2023-01-25T07:19:25;102427.61;;;-1.67;89.93
54924;BME280;40825;52.270;20.984;2023-01-25T07:21:50;102428.38;;;-1.63;89.92
54924;BME280;40825;52.270;20.984;2023-01-25T07:24:18;102433.27;;;-1.59;89.90
54924;BME280;40825;52.270;20.984;2023-01-25T07:26:44;102436.98;;;-1.56;90.03
54924;BME280;40825;52.270;20.984;2023-01-25T07:29:13;102427.42;;;-1.53;90.04
54924;BME280;40825;52.270;20.984;2023-01-25T07:31:39;102422.85;;;-1.52;89.59
54924;BME280;40825;52.270;20.984;2023-01-25T07:34:06;102423.39;;;-1.53;89.74
54924;BME280;40825;52.270;20.984;2023-01-25T07:36:32;102428.69;;;-1.54;89.68
54924;BME280;40825;52.270;20.984;2023-01-25T07:38:58;102423.64;;;-1.54;89.64
54924;BME280;40825;52.270;20.984;2023-01-25T07:41:24;102420.33;;;-1.54;89.69
54924;BME280;40825;52.270;20.984;2023-01-25T07:43:51;102421.28;;;-1.57;89.55
54924;BME280;40825;52.270;20.984;2023-01-25T07:46:16;102418.30;;;-1.60;89.42
54924;BME280;40825;52.270;20.984;2023-01-25T07:48:47;102413.11;;;-1.62;89.56
54924;BME280;40825;52.270;20.984;2023-01-25T07:51:14;102413.36;;;-1.59;89.76
54924;BME280;40825;52.270;20.984;2023-01-25T07:53:53;102415.62;;;-1.59;89.61
54924;BME280;40825;52.270;20.984;2023-01-25T07:56:21;102418.14;;;-1.57;89.65
54924;BME280;40825;52.270;20.984;2023-01-25T07:58:47;102415.70;;;-1.56;89.34
54924;BME280;40825;52.270;20.984;2023-01-25T08:01:15;102415.06;;;-1.54;89.76
54924;BME280;40825;52.270;20.984;2023-01-25T08:03:41;102416.52;;;-1.51;89.03
54924;BME280;40825;52.270;20.984;2023-01-25T08:06:08;102415.89;;;-1.61;88.90
54924;BME280;40825;52.270;20.984;2023-01-25T08:08:46;102413.98;;;-1.71;88.29
54924;BME280;40825;52.270;20.984;2023-01-25T08:11:20;102416.20;;;-1.83;88.72
54924;BME280;40825;52.270;20.984;2023-01-25T08:13:47;102414.15;;;-1.84;89.15
54924;BME280;40825;52.270;20.984;2023-01-25T08:16:19;102413.84;;;-1.80;89.41
54924;BME280;40825;52.270;20.984;2023-01-25T08:18:53;102409.27;;;-1.75;89.33
54924;BME280;40825;52.270;20.984;2023-01-25T08:21:20;102409.89;;;-1.73;89.20
54924;BME280;40825;52.270;20.984;2023-01-25T08:23:48;102412.52;;;-1.73;89.39
54924;BME280;40825;52.270;20.984;2023-01-25T08:26:14;102408.43;;;-1.72;89.02
54924;BME280;40825;52.270;20.984;2023-01-25T08:28:41;102401.95;;;-1.76;88.91
54924;BME280;40825;52.270;20.984;2023-01-25T08:31:18;102402.08;;;-1.79;89.04
54924;BME280;40825;52.270;20.984;2023-01-25T08:33:44;102397.62;;;-1.77;89.15
54924;BME280;40825;52.270;20.984;2023-01-25T08:36:12;102391.71;;;-1.73;89.15
54924;BME280;40825;52.270;20.984;2023-01-25T08:38:38;102387.92;;;-1.70;88.99
54924;BME280;40825;52.270;20.984;2023-01-25T08:41:12;102388.54;;;-1.67;88.70
54924;BME280;40825;52.270;20.984;2023-01-25T08:43:38;102384.73;;;-1.63;89.23
54924;BME280;40825;52.270;20.984;2023-01-25T08:46:04;102380.54;;;-1.59;89.11
54924;BME280;40825;52.270;20.984;2023-01-25T08:48:31;102381.02;;;-1.58;89.07
54924;BME280;40825;52.270;20.984;2023-01-25T08:50:57;102385.59;;;-1.55;89.28
54924;BME280;40825;52.270;20.984;2023-01-25T08:53:23;102386.20;;;-1.53;89.01
54924;BME280;40825;52.270;20.984;2023-01-25T08:55:49;102385.38;;;-1.49;89.20
54924;BME280;40825;52.270;20.984;2023-01-25T08:58:16;102379.95;;;-1.49;89.01
54924;BME280;40825;52.270;20.984;2023-01-25T09:00:44;102377.83;;;-1.48;89.02
54924;BME280;40825;52.270;20.984;2023-01-25T09:03:10;102377.70;;;-1.49;89.11
54924;BME280;40825;52.270;20.984;2023-01-25T09:05:37;102376.08;;;-1.48;88.83
54924;BME280;40825;52.270;20.984;2023-01-25T09:08:05;102370.70;;;-1.45;88.78
54924;BME280;40825;52.270;20.984;2023-01-25T09:10:31;102371.83;;;-1.38;88.92
54924;BME280;40825;52.270;20.984;2023-01-25T09:12:57;102371.02;;;-1.31;89.39
54924;BME280;40825;52.270;20.984;2023-01-25T09:15:22;102371.74;;;-1.28;88.08
54924;BME280;40825;52.270;20.984;2023-01-25T09:17:55;102366.22;;;-1.25;88.70
54924;BME280;40825;52.270;20.984;2023-01-25T09:20:22;102363.61;;;-1.21;88.64
54924;BME280;40825;52.270;20.984;2023-01-25T09:22:48;102363.23;;;-1.16;88.96
54924;BME280;40825;52.270;20.984;2023-01-25T09:25:14;102364.26;;;-1.12;88.84
54924;BME280;40825;52.270;20.984;2023-01-25T09:27:39;102354.57;;;-1.10;88.29
54924;BME280;40825;52.270;20.984;2023-01-25T09:30:06;102356.38;;;-1.07;88.53
54924;BME280;40825;52.270;20.984;2023-01-25T09:32:32;102356.57;;;-1.07;88.42
54924;BME280;40825;52.270;20.984;2023-01-25T09:34:58;102354.41;;;-1.10;88.24
54924;BME280;40825;52.270;20.984;2023-01-25T09:37:24;102343.62;;;-1.11;86.92
54924;BME280;40825;52.270;20.984;2023-01-25T09:39:49;102338.83;;;-1.13;87.14
54924;BME280;40825;52.270;20.984;2023-01-25T09:45:16;102327.69;;;-1.14;87.74
54924;BME280;40825;52.270;20.984;2023-01-25T09:48:26;102323.66;;;-1.10;87.47
54924;BME280;40825;52.270;20.984;2023-01-25T09:51:04;102321.73;;;-1.06;87.86
54924;BME280;40825;52.270;20.984;2023-01-25T09:53:33;102318.99;;;-1.03;87.60
54924;BME280;40825;52.270;20.984;2023-01-25T09:56:27;102315.31;;;-1.03;86.56
54924;BME280;40825;52.270;20.984;2023-01-25T09:58:58;102318.74;;;-1.02;86.75
54924;BME280;40825;52.270;20.984;2023-01-25T10:03:57;102319.33;;;-0.99;86.81
54924;BME280;40825;52.270;20.984;2023-01-25T10:06:47;102315.73;;;-0.97;87.12
54924;BME280;40825;52.270;20.984;2023-01-25T10:09:32;102311.77;;;-0.98;87.76
54924;BME280;40825;52.270;20.984;2023-01-25T10:12:07;102309.61;;;-0.97;88.08
54924;BME280;40825;52.270;20.984;2023-01-25T10:14:36;102307.46;;;-0.95;87.93
54924;BME280;40825;52.270;20.984;2023-01-25T10:17:13;102302.15;;;-0.93;88.00
54924;BME280;40825;52.270;20.984;2023-01-25T10:22:22;102301.36;;;-0.92;88.10
54924;BME280;40825;52.270;20.984;2023-01-25T10:30:28;102286.67;;;-0.88;87.80
54924;BME280;40825;52.270;20.984;2023-01-25T10:32:56;102279.86;;;-0.88;87.19
54924;BME280;40825;52.270;20.984;2023-01-25T10:35:27;102275.00;;;-0.89;86.49
54924;BME280;40825;52.270;20.984;2023-01-25T10:37:58;102264.88;;;-0.89;86.42
54924;BME280;40825;52.270;20.984;2023-01-25T10:40:32;102260.94;;;-0.90;86.58
54924;BME280;40825;52.270;20.984;2023-01-25T10:43:12;102254.42;;;-0.90;87.44
54924;BME280;40825;52.270;20.984;2023-01-25T10:45:39;102248.93;;;-0.96;87.04
54924;BME280;40825;52.270;20.984;2023-01-25T10:48:12;102248.23;;;-0.96;86.94
54924;BME280;40825;52.270;20.984;2023-01-25T10:56:21;102241.35;;;-0.87;87.76
54924;BME280;40825;52.270;20.984;2023-01-25T10:58:49;102240.66;;;-0.82;87.80
54924;BME280;40825;52.270;20.984;2023-01-25T11:01:33;102241.93;;;-0.80;87.74
54924;BME280;40825;52.270;20.984;2023-01-25T11:04:00;102241.16;;;-0.78;87.33
54924;BME280;40825;52.270;20.984;2023-01-25T11:06:33;102239.40;;;-0.78;87.30
54924;BME280;40825;52.270;20.984;2023-01-25T11:08:59;102234.06;;;-0.80;87.40
54924;BME280;40825;52.270;20.984;2023-01-25T11:11:31;102229.52;;;-0.88;86.64
54924;BME280;40825;52.270;20.984;2023-01-25T11:13:59;102221.95;;;-0.91;86.77
54924;BME280;40825;52.270;20.984;2023-01-25T11:16:34;102208.27;;;-0.93;86.55
54924;BME280;40825;52.270;20.984;2023-01-25T11:19:02;102206.02;;;-0.98;85.33
54924;BME280;40825;52.270;20.984;2023-01-25T11:21:32;102205.63;;;-0.97;86.70
54924;BME280;40825;52.270;20.984;2023-01-25T11:26:38;102192.38;;;-0.90;86.90
54924;BME280;40825;52.270;20.984;2023-01-25T11:29:12;102188.30;;;-0.88;86.31
54924;BME280;40825;52.270;20.984;2023-01-25T11:31:40;102188.79;;;-0.88;86.63
54924;BME280;40825;52.270;20.984;2023-01-25T11:34:12;102186.84;;;-0.87;86.62
54924;BME280;40825;52.270;20.984;2023-01-25T11:36:50;102182.69;;;-0.84;87.04
54924;BME280;40825;52.270;20.984;2023-01-25T11:39:39;102184.10;;;-0.80;86.82
54924;BME280;40825;52.270;20.984;2023-01-25T11:42:28;102186.55;;;-0.77;87.14
54924;BME280;40825;52.270;20.984;2023-01-25T11:45:08;102192.92;;;-0.75;86.68
54924;BME280;40825;52.270;20.984;2023-01-25T11:50:19;102185.19;;;-0.86;86.85
54924;BME280;40825;52.270;20.984;2023-01-25T11:56:10;102176.21;;;-0.84;87.00
54924;BME280;40825;52.270;20.984;2023-01-25T11:58:59;102163.98;;;-0.80;87.19
54924;BME280;40825;52.270;20.984;2023-01-25T12:01:37;102158.97;;;-0.78;87.19
54924;BME280;40825;52.270;20.984;2023-01-25T12:07:04;102145.94;;;-0.80;86.36
54924;BME280;40825;52.270;20.984;2023-01-25T12:09:36;102146.63;;;-0.79;86.78
54924;BME280;40825;52.270;20.984;2023-01-25T12:12:58;102145.64;;;-0.80;86.44
54924;BME280;40825;52.270;20.984;2023-01-25T12:26:47;102120.69;;;-0.78;86.86
54924;BME280;40825;52.270;20.984;2023-01-25T12:29:34;102113.59;;;-0.76;86.88
54924;BME280;40825;52.270;20.984;2023-01-25T12:32:21;102113.60;;;-0.76;86.85
54924;BME280;40825;52.270;20.984;2023-01-25T12:35:00;102112.94;;;-0.77;86.72
54924;BME280;40825;52.270;20.984;2023-01-25T12:37:33;102112.79;;;-0.81;86.55
54924;BME280;40825;52.270;20.984;2023-01-25T12:40:03;102113.61;;;-0.80;87.12
54924;BME280;40825;52.270;20.984;2023-01-25T12:42:39;102112.27;;;-0.77;87.33
54924;BME280;40825;52.270;20.984;2023-01-25T12:45:20;102108.92;;;-0.77;87.12
54924;BME280;40825;52.270;20.984;2023-01-25T12:47:54;102110.06;;;-0.79;86.95
54924;BME280;40825;52.270;20.984;2023-01-25T12:50:30;102112.20;;;-0.83;86.27
54924;BME280;40825;52.270;20.984;2023-01-25T12:53:09;102112.83;;;-0.82;86.97
54924;BME280;40825;52.270;20.984;2023-01-25T12:55:37;102107.65;;;-0.76;86.90
54924;BME280;40825;52.270;20.984;2023-01-25T13:03:20;102104.58;;;-0.70;87.01
54924;BME280;40825;52.270;20.984;2023-01-25T13:09:00;102102.35;;;-0.71;87.07
54924;BME280;40825;52.270;20.984;2023-01-25T13:11:47;102092.38;;;-0.67;87.14
54924;BME280;40825;52.270;20.984;2023-01-25T13:16:49;102087.50;;;-0.64;87.02
54924;BME280;40825;52.270;20.984;2023-01-25T13:21:54;102070.45;;;-0.62;87.26
54924;BME280;40825;52.270;20.984;2023-01-25T13:24:29;102064.45;;;-0.61;87.33
54924;BME280;40825;52.270;20.984;2023-01-25T13:34:58;102054.64;;;-0.54;86.53
54924;BME280;40825;52.270;20.984;2023-01-25T13:37:27;102048.98;;;-0.56;87.00
54924;BME280;40825;52.270;20.984;2023-01-25T13:40:00;102047.80;;;-0.53;87.02
54924;BME280;40825;52.270;20.984;2023-01-25T13:42:34;102047.44;;;-0.53;86.82
54924;BME280;40825;52.270;20.984;2023-01-25T13:45:13;102044.45;;;-0.52;86.81
54924;BME280;40825;52.270;20.984;2023-01-25T13:47:41;102039.08;;;-0.53;86.84
54924;BME280;40825;52.270;20.984;2023-01-25T13:50:19;102035.76;;;-0.58;86.53
54924;BME280;40825;52.270;20.984;2023-01-25T13:53:04;102035.89;;;-0.60;86.39
54924;BME280;40825;52.270;20.984;2023-01-25T13:55:39;102035.42;;;-0.61;86.61
54924;BME280;40825;52.270;20.984;2023-01-25T13:58:48;102028.02;;;-0.60;86.77
54924;BME280;40825;52.270;20.984;2023-01-25T14:00:59;102021.89;;;-0.60;86.93
54924;BME280;40825;52.270;20.984;2023-01-25T14:03:37;102018.72;;;-0.60;87.00
54924;BME280;40825;52.270;20.984;2023-01-25T14:06:06;102013.77;;;-0.62;87.10
54924;BME280;40825;52.270;20.984;2023-01-25T14:08:32;102012.60;;;-0.63;87.08
54924;BME280;40825;52.270;20.984;2023-01-25T14:10:58;102017.16;;;-0.63;87.05
54924;BME280;40825;52.270;20.984;2023-01-25T14:13:23;102011.17;;;-0.62;87.14